sensor_id;sensor_type;location;lat;lon;timestamp;P1;durP1;ratioP1;P2;durP2;ratioP2
65753;SDS011;52488;47.502;18.940;2022-09-19T00:00:51;2.62;;;0.60;;
65753;SDS011;52488;47.502;18.940;2022-09-19T00:01:54;1.27;;;0.70;;
65753;SDS011;52488;47.502;18.940;2022-09-19T00:02:58;1.83;;;0.52;;
65753;SDS011;52488;47.502;18.940;2022-09-19T00:04:02;0.60;;;0.60;;
65753;SDS011;52488;47.502;18.940;2022-09-19T00:05:11;1.70;;;0.40;;
65753;SDS011;52488;47.502;18.940;2022-09-19T00:06:15;0.70;;;0.57;;
65753;SDS011;52488;47.502;18.940;2022-09-19T00:07:18;0.30;;;0.30;;
65753;SDS011;52488;47.502;18.940;2022-09-19T00:08:23;1.77;;;0.47;;
65753;SDS011;52488;47.502;18.940;2022-09-19T00:09:28;2.05;;;0.43;;
65753;SDS011;52488;47.502;18.940;2022-09-19T00:10:39;0.40;;;0.40;;
65753;SDS011;52488;47.502;18.940;2022-09-19T00:11:44;0.63;;;0.43;;
65753;SDS011;52488;47.502;18.940;2022-09-19T00:12:48;1.27;;;0.40;;
65753;SDS011;52488;47.502;18.940;2022-09-19T00:13:51;0.45;;;0.40;;
65753;SDS011;52488;47.502;18.940;2022-09-19T00:14:56;1.50;;;0.65;;
65753;SDS011;52488;47.502;18.940;2022-09-19T00:16:00;1.02;;;0.40;;
65753;SDS011;52488;47.502;18.940;2022-09-19T00:17:04;0.50;;;0.30;;
65753;SDS011;52488;47.502;18.940;2022-09-19T00:18:10;2.78;;;0.60;;
65753;SDS011;52488;47.502;18.940;2022-09-19T00:19:15;0.40;;;0.40;;
65753;SDS011;52488;47.502;18.940;2022-09-19T00:20:19;0.45;;;0.40;;
65753;SDS011;52488;47.502;18.940;2022-09-19T00:21:27;0.82;;;0.40;;
65753;SDS011;52488;47.502;18.940;2022-09-19T00:22:43;0.75;;;0.50;;
65753;SDS011;52488;47.502;18.940;2022-09-19T00:24:06;1.23;;;0.40;;
65753;SDS011;52488;47.502;18.940;2022-09-19T00:25:30;2.60;;;0.50;;
65753;SDS011;52488;47.502;18.940;2022-09-19T00:26:33;0.93;;;0.50;;
65753;SDS011;52488;47.502;18.940;2022-09-19T00:27:37;1.02;;;0.50;;
65753;SDS011;52488;47.502;18.940;2022-09-19T00:28:43;1.55;;;0.40;;
65753;SDS011;52488;47.502;18.940;2022-09-19T00:29:47;1.12;;;0.60;;
65753;SDS011;52488;47.502;18.940;2022-09-19T00:30:51;0.40;;;0.40;;
65753;SDS011;52488;47.502;18.940;2022-09-19T00:31:53;0.62;;;0.40;;
65753;SDS011;52488;47.502;18.940;2022-09-19T00:32:56;0.20;;;0.20;;
65753;SDS011;52488;47.502;18.940;2022-09-19T00:34:00;0.37;;;0.37;;
65753;SDS011;52488;47.502;18.940;2022-09-19T00:35:08;2.33;;;0.50;;
65753;SDS011;52488;47.502;18.940;2022-09-19T00:36:11;0.47;;;0.40;;
65753;SDS011;52488;47.502;18.940;2022-09-19T00:37:15;0.45;;;0.32;;
65753;SDS011;52488;47.502;18.940;2022-09-19T00:38:22;1.15;;;0.30;;
65753;SDS011;52488;47.502;18.940;2022-09-19T00:39:26;0.90;;;0.50;;
65753;SDS011;52488;47.502;18.940;2022-09-19T00:40:29;0.32;;;0.32;;
65753;SDS011;52488;47.502;18.940;2022-09-19T00:41:31;0.47;;;0.40;;
65753;SDS011;52488;47.502;18.940;2022-09-19T00:42:35;2.28;;;0.40;;
65753;SDS011;52488;47.502;18.940;2022-09-19T00:44:56;0.95;;;0.30;;
65753;SDS011;52488;47.502;18.940;2022-09-19T00:46:03;1.05;;;0.45;;
65753;SDS011;52488;47.502;18.940;2022-09-19T00:47:12;0.85;;;0.45;;
65753;SDS011;52488;47.502;18.940;2022-09-19T00:48:19;0.90;;;0.47;;
65753;SDS011;52488;47.502;18.940;2022-09-19T00:49:29;1.75;;;0.50;;
65753;SDS011;52488;47.502;18.940;2022-09-19T00:50:36;0.73;;;0.37;;
65753;SDS011;52488;47.502;18.940;2022-09-19T00:51:42;0.70;;;0.40;;
65753;SDS011;52488;47.502;18.940;2022-09-19T00:52:50;0.70;;;0.50;;
65753;SDS011;52488;47.502;18.940;2022-09-19T00:54:01;1.00;;;0.57;;
65753;SDS011;52488;47.502;18.940;2022-09-19T00:55:12;0.73;;;0.35;;
65753;SDS011;52488;47.502;18.940;2022-09-19T00:56:15;2.15;;;0.40;;
65753;SDS011;52488;47.502;18.940;2022-09-19T00:57:20;1.37;;;0.60;;
65753;SDS011;52488;47.502;18.940;2022-09-19T00:58:28;0.40;;;0.40;;
65753;SDS011;52488;47.502;18.940;2022-09-19T00:59:36;0.75;;;0.30;;
65753;SDS011;52488;47.502;18.940;2022-09-19T01:00:40;0.40;;;0.40;;
65753;SDS011;52488;47.502;18.940;2022-09-19T01:01:43;0.85;;;0.40;;
65753;SDS011;52488;47.502;18.940;2022-09-19T01:02:47;1.80;;;0.50;;
65753;SDS011;52488;47.502;18.940;2022-09-19T01:03:53;0.40;;;0.40;;
65753;SDS011;52488;47.502;18.940;2022-09-19T01:04:58;0.50;;;0.50;;
65753;SDS011;52488;47.502;18.940;2022-09-19T01:06:06;1.00;;;0.50;;
65753;SDS011;52488;47.502;18.940;2022-09-19T01:07:52;2.17;;;0.50;;
65753;SDS011;52488;47.502;18.940;2022-09-19T01:10:22;1.45;;;0.50;;
65753;SDS011;52488;47.502;18.940;2022-09-19T01:13:04;0.30;;;0.30;;
65753;SDS011;52488;47.502;18.940;2022-09-19T01:14:26;0.60;;;0.50;;
65753;SDS011;52488;47.502;18.940;2022-09-19T01:16:52;0.30;;;0.30;;
65753;SDS011;52488;47.502;18.940;2022-09-19T01:18:04;0.68;;;0.40;;
65753;SDS011;52488;47.502;18.940;2022-09-19T01:20:50;0.50;;;0.40;;
65753;SDS011;52488;47.502;18.940;2022-09-19T01:25:33;1.40;;;0.40;;
65753;SDS011;52488;47.502;18.940;2022-09-19T01:30:16;0.40;;;0.40;;
65753;SDS011;52488;47.502;18.940;2022-09-19T01:31:21;2.10;;;0.62;;
65753;SDS011;52488;47.502;18.940;2022-09-19T01:32:32;2.05;;;0.30;;
65753;SDS011;52488;47.502;18.940;2022-09-19T01:33:46;2.50;;;0.40;;
65753;SDS011;52488;47.502;18.940;2022-09-19T01:35:09;0.30;;;0.30;;
65753;SDS011;52488;47.502;18.940;2022-09-19T01:36:18;2.95;;;0.40;;
65753;SDS011;52488;47.502;18.940;2022-09-19T01:37:26;0.95;;;0.40;;
65753;SDS011;52488;47.502;18.940;2022-09-19T01:38:34;2.83;;;0.50;;
65753;SDS011;52488;47.502;18.940;2022-09-19T01:39:41;0.80;;;0.40;;
65753;SDS011;52488;47.502;18.940;2022-09-19T01:40:48;0.65;;;0.30;;
65753;SDS011;52488;47.502;18.940;2022-09-19T01:41:56;0.65;;;0.30;;
65753;SDS011;52488;47.502;18.940;2022-09-19T01:43:02;0.57;;;0.20;;
65753;SDS011;52488;47.502;18.940;2022-09-19T01:44:14;0.20;;;0.20;;
65753;SDS011;52488;47.502;18.940;2022-09-19T01:45:18;0.40;;;0.40;;
65753;SDS011;52488;47.502;18.940;2022-09-19T01:47:49;0.65;;;0.40;;
65753;SDS011;52488;47.502;18.940;2022-09-19T01:49:00;0.85;;;0.40;;
65753;SDS011;52488;47.502;18.940;2022-09-19T01:50:25;0.57;;;0.30;;
65753;SDS011;52488;47.502;18.940;2022-09-19T01:51:48;1.48;;;0.30;;
65753;SDS011;52488;47.502;18.940;2022-09-19T01:54:42;1.42;;;0.60;;
65753;SDS011;52488;47.502;18.940;2022-09-19T01:56:00;0.80;;;0.43;;
65753;SDS011;52488;47.502;18.940;2022-09-19T01:59:46;0.50;;;0.50;;
65753;SDS011;52488;47.502;18.940;2022-09-19T02:01:05;0.50;;;0.40;;
65753;SDS011;52488;47.502;18.940;2022-09-19T02:04:41;2.85;;;0.43;;
65753;SDS011;52488;47.502;18.940;2022-09-19T02:05:55;1.85;;;0.30;;
65753;SDS011;52488;47.502;18.940;2022-09-19T02:07:26;0.93;;;0.40;;
65753;SDS011;52488;47.502;18.940;2022-09-19T02:08:55;1.33;;;0.40;;
65753;SDS011;52488;47.502;18.940;2022-09-19T02:10:07;1.60;;;0.30;;
65753;SDS011;52488;47.502;18.940;2022-09-19T02:11:18;0.50;;;0.43;;
65753;SDS011;52488;47.502;18.940;2022-09-19T02:12:23;2.47;;;0.50;;
65753;SDS011;52488;47.502;18.940;2022-09-19T02:13:30;1.20;;;0.50;;
65753;SDS011;52488;47.502;18.940;2022-09-19T02:14:38;0.50;;;0.50;;
65753;SDS011;52488;47.502;18.940;2022-09-19T02:15:45;3.12;;;0.50;;
65753;SDS011;52488;47.502;18.940;2022-09-19T02:18:08;1.33;;;0.40;;
65753;SDS011;52488;47.502;18.940;2022-09-19T02:19:22;0.73;;;0.37;;
65753;SDS011;52488;47.502;18.940;2022-09-19T02:20:33;0.60;;;0.60;;
65753;SDS011;52488;47.502;18.940;2022-09-19T02:21:41;1.67;;;0.60;;
65753;SDS011;52488;47.502;18.940;2022-09-19T02:22:52;0.80;;;0.80;;
65753;SDS011;52488;47.502;18.940;2022-09-19T02:24:00;3.12;;;1.30;;
65753;SDS011;52488;47.502;18.940;2022-09-19T02:25:09;3.42;;;0.90;;
65753;SDS011;52488;47.502;18.940;2022-09-19T02:26:17;1.05;;;0.98;;
65753;SDS011;52488;47.502;18.940;2022-09-19T02:27:24;2.50;;;1.15;;
65753;SDS011;52488;47.502;18.940;2022-09-19T02:28:35;1.00;;;0.80;;
65753;SDS011;52488;47.502;18.940;2022-09-19T02:29:45;2.83;;;0.80;;
65753;SDS011;52488;47.502;18.940;2022-09-19T02:30:51;0.70;;;0.70;;
65753;SDS011;52488;47.502;18.940;2022-09-19T02:31:54;1.30;;;1.02;;
65753;SDS011;52488;47.502;18.940;2022-09-19T02:32:58;1.23;;;0.88;;
65753;SDS011;52488;47.502;18.940;2022-09-19T02:34:07;0.70;;;0.60;;
65753;SDS011;52488;47.502;18.940;2022-09-19T02:35:10;1.95;;;0.60;;
65753;SDS011;52488;47.502;18.940;2022-09-19T02:36:52;2.42;;;0.60;;
65753;SDS011;52488;47.502;18.940;2022-09-19T02:37:56;1.67;;;0.40;;
65753;SDS011;52488;47.502;18.940;2022-09-19T02:39:19;1.33;;;0.47;;
65753;SDS011;52488;47.502;18.940;2022-09-19T02:41:44;0.45;;;0.30;;
65753;SDS011;52488;47.502;18.940;2022-09-19T02:42:59;1.30;;;0.43;;
65753;SDS011;52488;47.502;18.940;2022-09-19T02:44:13;0.60;;;0.40;;
65753;SDS011;52488;47.502;18.940;2022-09-19T02:45:25;1.90;;;0.57;;
65753;SDS011;52488;47.502;18.940;2022-09-19T02:46:39;0.43;;;0.43;;
65753;SDS011;52488;47.502;18.940;2022-09-19T02:49:39;0.62;;;0.47;;
65753;SDS011;52488;47.502;18.940;2022-09-19T02:51:16;0.40;;;0.40;;
65753;SDS011;52488;47.502;18.940;2022-09-19T02:52:31;0.90;;;0.77;;
65753;SDS011;52488;47.502;18.940;2022-09-19T02:53:37;0.82;;;0.40;;
65753;SDS011;52488;47.502;18.940;2022-09-19T02:54:46;0.55;;;0.32;;
65753;SDS011;52488;47.502;18.940;2022-09-19T02:55:54;0.85;;;0.40;;
65753;SDS011;52488;47.502;18.940;2022-09-19T02:57:01;1.65;;;0.45;;
65753;SDS011;52488;47.502;18.940;2022-09-19T02:58:10;0.57;;;0.50;;
65753;SDS011;52488;47.502;18.940;2022-09-19T02:59:18;1.52;;;0.40;;
65753;SDS011;52488;47.502;18.940;2022-09-19T03:00:27;1.58;;;0.30;;
65753;SDS011;52488;47.502;18.940;2022-09-19T03:01:30;1.58;;;0.57;;
65753;SDS011;52488;47.502;18.940;2022-09-19T03:02:38;1.95;;;0.65;;
65753;SDS011;52488;47.502;18.940;2022-09-19T03:03:50;1.35;;;0.40;;
65753;SDS011;52488;47.502;18.940;2022-09-19T03:05:16;0.82;;;0.40;;
65753;SDS011;52488;47.502;18.940;2022-09-19T03:06:22;3.87;;;0.57;;
65753;SDS011;52488;47.502;18.940;2022-09-19T03:07:31;0.60;;;0.40;;
65753;SDS011;52488;47.502;18.940;2022-09-19T03:08:58;0.55;;;0.40;;
65753;SDS011;52488;47.502;18.940;2022-09-19T03:10:11;0.82;;;0.40;;
65753;SDS011;52488;47.502;18.940;2022-09-19T03:11:17;0.57;;;0.40;;
65753;SDS011;52488;47.502;18.940;2022-09-19T03:12:27;0.98;;;0.60;;
65753;SDS011;52488;47.502;18.940;2022-09-19T03:13:40;1.35;;;0.40;;
65753;SDS011;52488;47.502;18.940;2022-09-19T03:14:46;0.57;;;0.50;;
65753;SDS011;52488;47.502;18.940;2022-09-19T03:16:01;1.33;;;0.40;;
65753;SDS011;52488;47.502;18.940;2022-09-19T03:17:09;1.35;;;0.40;;
65753;SDS011;52488;47.502;18.940;2022-09-19T03:18:19;0.45;;;0.40;;
65753;SDS011;52488;47.502;18.940;2022-09-19T03:19:28;2.67;;;0.50;;
65753;SDS011;52488;47.502;18.940;2022-09-19T03:20:36;1.00;;;0.30;;
65753;SDS011;52488;47.502;18.940;2022-09-19T03:21:39;1.77;;;0.55;;
65753;SDS011;52488;47.502;18.940;2022-09-19T03:22:43;2.62;;;0.60;;
65753;SDS011;52488;47.502;18.940;2022-09-19T03:23:48;0.40;;;0.40;;
65753;SDS011;52488;47.502;18.940;2022-09-19T03:24:54;0.65;;;0.50;;
65753;SDS011;52488;47.502;18.940;2022-09-19T03:25:57;0.30;;;0.30;;
65753;SDS011;52488;47.502;18.940;2022-09-19T03:26:59;1.87;;;0.50;;
65753;SDS011;52488;47.502;18.940;2022-09-19T03:28:02;1.12;;;0.50;;
65753;SDS011;52488;47.502;18.940;2022-09-19T03:29:07;2.78;;;0.62;;
65753;SDS011;52488;47.502;18.940;2022-09-19T03:30:11;0.60;;;0.60;;
65753;SDS011;52488;47.502;18.940;2022-09-19T03:31:22;1.48;;;0.68;;
65753;SDS011;52488;47.502;18.940;2022-09-19T03:32:25;0.70;;;0.52;;
65753;SDS011;52488;47.502;18.940;2022-09-19T03:33:29;0.60;;;0.60;;
65753;SDS011;52488;47.502;18.940;2022-09-19T03:34:32;2.33;;;0.68;;
65753;SDS011;52488;47.502;18.940;2022-09-19T03:35:38;0.82;;;0.70;;
65753;SDS011;52488;47.502;18.940;2022-09-19T03:36:41;0.68;;;0.68;;
65753;SDS011;52488;47.502;18.940;2022-09-19T03:37:45;0.55;;;0.55;;
65753;SDS011;52488;47.502;18.940;2022-09-19T03:38:55;0.70;;;0.70;;
65753;SDS011;52488;47.502;18.940;2022-09-19T03:40:04;1.00;;;0.90;;
65753;SDS011;52488;47.502;18.940;2022-09-19T03:41:12;0.70;;;0.68;;
65753;SDS011;52488;47.502;18.940;2022-09-19T03:42:16;0.62;;;0.52;;
65753;SDS011;52488;47.502;18.940;2022-09-19T03:43:20;1.20;;;0.60;;
65753;SDS011;52488;47.502;18.940;2022-09-19T03:44:23;2.83;;;0.60;;
65753;SDS011;52488;47.502;18.940;2022-09-19T03:45:26;0.50;;;0.50;;
65753;SDS011;52488;47.502;18.940;2022-09-19T03:46:29;2.37;;;0.73;;
65753;SDS011;52488;47.502;18.940;2022-09-19T03:47:35;0.88;;;0.40;;
65753;SDS011;52488;47.502;18.940;2022-09-19T03:48:48;2.05;;;0.50;;
65753;SDS011;52488;47.502;18.940;2022-09-19T03:49:51;2.45;;;0.65;;
65753;SDS011;52488;47.502;18.940;2022-09-19T03:50:54;4.32;;;0.60;;
65753;SDS011;52488;47.502;18.940;2022-09-19T03:51:57;3.00;;;0.60;;
65753;SDS011;52488;47.502;18.940;2022-09-19T03:53:00;0.85;;;0.50;;
65753;SDS011;52488;47.502;18.940;2022-09-19T03:54:03;0.80;;;0.47;;
65753;SDS011;52488;47.502;18.940;2022-09-19T03:55:07;0.60;;;0.45;;
65753;SDS011;52488;47.502;18.940;2022-09-19T03:56:16;0.73;;;0.40;;
65753;SDS011;52488;47.502;18.940;2022-09-19T03:57:19;0.60;;;0.40;;
65753;SDS011;52488;47.502;18.940;2022-09-19T03:58:23;1.17;;;0.40;;
65753;SDS011;52488;47.502;18.940;2022-09-19T03:59:27;2.33;;;0.60;;
65753;SDS011;52488;47.502;18.940;2022-09-19T04:00:30;0.43;;;0.40;;
65753;SDS011;52488;47.502;18.940;2022-09-19T04:01:33;0.90;;;0.60;;
65753;SDS011;52488;47.502;18.940;2022-09-19T04:02:36;1.10;;;0.45;;
65753;SDS011;52488;47.502;18.940;2022-09-19T04:03:38;0.47;;;0.45;;
65753;SDS011;52488;47.502;18.940;2022-09-19T04:04:42;1.40;;;0.50;;
65753;SDS011;52488;47.502;18.940;2022-09-19T04:05:44;1.00;;;0.50;;
65753;SDS011;52488;47.502;18.940;2022-09-19T04:06:47;1.10;;;0.55;;
65753;SDS011;52488;47.502;18.940;2022-09-19T04:07:50;0.52;;;0.52;;
65753;SDS011;52488;47.502;18.940;2022-09-19T04:08:55;1.02;;;0.75;;
65753;SDS011;52488;47.502;18.940;2022-09-19T04:09:58;0.85;;;0.62;;
65753;SDS011;52488;47.502;18.940;2022-09-19T04:11:00;0.60;;;0.60;;
65753;SDS011;52488;47.502;18.940;2022-09-19T04:12:04;0.73;;;0.50;;
65753;SDS011;52488;47.502;18.940;2022-09-19T04:13:08;0.60;;;0.50;;
65753;SDS011;52488;47.502;18.940;2022-09-19T04:14:11;1.15;;;0.70;;
65753;SDS011;52488;47.502;18.940;2022-09-19T04:15:14;1.73;;;0.70;;
65753;SDS011;52488;47.502;18.940;2022-09-19T04:16:18;1.02;;;0.70;;
65753;SDS011;52488;47.502;18.940;2022-09-19T04:17:21;2.08;;;0.80;;
65753;SDS011;52488;47.502;18.940;2022-09-19T04:18:30;1.00;;;0.50;;
65753;SDS011;52488;47.502;18.940;2022-09-19T04:19:37;0.65;;;0.62;;
65753;SDS011;52488;47.502;18.940;2022-09-19T04:20:41;0.70;;;0.60;;
65753;SDS011;52488;47.502;18.940;2022-09-19T04:21:44;2.40;;;0.60;;
65753;SDS011;52488;47.502;18.940;2022-09-19T04:22:52;2.60;;;0.75;;
65753;SDS011;52488;47.502;18.940;2022-09-19T04:23:55;0.80;;;0.50;;
65753;SDS011;52488;47.502;18.940;2022-09-19T04:24:59;1.75;;;0.50;;
65753;SDS011;52488;47.502;18.940;2022-09-19T04:26:02;0.60;;;0.60;;
65753;SDS011;52488;47.502;18.940;2022-09-19T04:27:07;0.65;;;0.50;;
65753;SDS011;52488;47.502;18.940;2022-09-19T04:28:10;2.72;;;0.50;;
65753;SDS011;52488;47.502;18.940;2022-09-19T04:29:17;0.93;;;0.50;;
65753;SDS011;52488;47.502;18.940;2022-09-19T04:30:23;0.77;;;0.50;;
65753;SDS011;52488;47.502;18.940;2022-09-19T04:31:28;1.70;;;0.45;;
65753;SDS011;52488;47.502;18.940;2022-09-19T04:32:41;1.98;;;0.40;;
65753;SDS011;52488;47.502;18.940;2022-09-19T04:33:44;0.40;;;0.40;;
65753;SDS011;52488;47.502;18.940;2022-09-19T04:34:47;1.30;;;0.50;;
65753;SDS011;52488;47.502;18.940;2022-09-19T04:35:51;0.95;;;0.50;;
65753;SDS011;52488;47.502;18.940;2022-09-19T04:36:54;0.88;;;0.62;;
65753;SDS011;52488;47.502;18.940;2022-09-19T04:38:02;1.30;;;0.75;;
65753;SDS011;52488;47.502;18.940;2022-09-19T04:39:10;0.52;;;0.52;;
65753;SDS011;52488;47.502;18.940;2022-09-19T04:40:13;1.62;;;0.45;;
65753;SDS011;52488;47.502;18.940;2022-09-19T04:41:15;1.70;;;0.70;;
65753;SDS011;52488;47.502;18.940;2022-09-19T04:42:18;0.60;;;0.60;;
65753;SDS011;52488;47.502;18.940;2022-09-19T04:43:21;1.77;;;0.52;;
65753;SDS011;52488;47.502;18.940;2022-09-19T04:44:24;1.02;;;0.60;;
65753;SDS011;52488;47.502;18.940;2022-09-19T04:45:30;0.70;;;0.70;;
65753;SDS011;52488;47.502;18.940;2022-09-19T04:46:34;0.70;;;0.60;;
65753;SDS011;52488;47.502;18.940;2022-09-19T04:47:36;1.33;;;0.70;;
65753;SDS011;52488;47.502;18.940;2022-09-19T04:48:43;1.35;;;0.45;;
65753;SDS011;52488;47.502;18.940;2022-09-19T04:49:46;0.85;;;0.40;;
65753;SDS011;52488;47.502;18.940;2022-09-19T04:50:49;0.40;;;0.40;;
65753;SDS011;52488;47.502;18.940;2022-09-19T04:51:53;2.65;;;0.40;;
65753;SDS011;52488;47.502;18.940;2022-09-19T04:52:57;1.37;;;0.60;;
65753;SDS011;52488;47.502;18.940;2022-09-19T04:54:00;3.42;;;0.50;;
65753;SDS011;52488;47.502;18.940;2022-09-19T04:55:04;0.75;;;0.55;;
65753;SDS011;52488;47.502;18.940;2022-09-19T04:56:11;2.42;;;0.70;;
65753;SDS011;52488;47.502;18.940;2022-09-19T04:57:14;0.50;;;0.50;;
65753;SDS011;52488;47.502;18.940;2022-09-19T04:58:18;0.73;;;0.60;;
65753;SDS011;52488;47.502;18.940;2022-09-19T04:59:22;1.23;;;0.50;;
65753;SDS011;52488;47.502;18.940;2022-09-19T05:00:24;0.85;;;0.65;;
65753;SDS011;52488;47.502;18.940;2022-09-19T05:01:41;0.40;;;0.40;;
65753;SDS011;52488;47.502;18.940;2022-09-19T05:02:47;0.75;;;0.55;;
65753;SDS011;52488;47.502;18.940;2022-09-19T05:03:57;1.65;;;0.50;;
65753;SDS011;52488;47.502;18.940;2022-09-19T05:05:00;1.92;;;0.57;;
65753;SDS011;52488;47.502;18.940;2022-09-19T05:06:03;2.12;;;0.62;;
65753;SDS011;52488;47.502;18.940;2022-09-19T05:07:08;0.85;;;0.65;;
65753;SDS011;52488;47.502;18.940;2022-09-19T05:08:21;0.95;;;0.50;;
65753;SDS011;52488;47.502;18.940;2022-09-19T05:09:29;1.60;;;0.52;;
65753;SDS011;52488;47.502;18.940;2022-09-19T05:10:32;0.45;;;0.45;;
65753;SDS011;52488;47.502;18.940;2022-09-19T05:11:35;0.60;;;0.60;;
65753;SDS011;52488;47.502;18.940;2022-09-19T05:12:44;1.27;;;0.50;;
65753;SDS011;52488;47.502;18.940;2022-09-19T05:13:47;2.95;;;0.80;;
65753;SDS011;52488;47.502;18.940;2022-09-19T05:14:51;0.60;;;0.60;;
65753;SDS011;52488;47.502;18.940;2022-09-19T05:15:54;0.55;;;0.50;;
65753;SDS011;52488;47.502;18.940;2022-09-19T05:16:58;0.50;;;0.50;;
65753;SDS011;52488;47.502;18.940;2022-09-19T05:18:01;2.30;;;0.62;;
65753;SDS011;52488;47.502;18.940;2022-09-19T05:19:06;1.75;;;0.80;;
65753;SDS011;52488;47.502;18.940;2022-09-19T05:20:10;0.60;;;0.60;;
65753;SDS011;52488;47.502;18.940;2022-09-19T05:21:14;2.12;;;0.62;;
65753;SDS011;52488;47.502;18.940;2022-09-19T05:22:17;3.10;;;0.70;;
65753;SDS011;52488;47.502;18.940;2022-09-19T05:23:20;0.70;;;0.60;;
65753;SDS011;52488;47.502;18.940;2022-09-19T05:24:25;1.17;;;0.70;;
65753;SDS011;52488;47.502;18.940;2022-09-19T05:25:28;2.33;;;0.80;;
65753;SDS011;52488;47.502;18.940;2022-09-19T05:26:33;0.70;;;0.70;;
65753;SDS011;52488;47.502;18.940;2022-09-19T05:27:38;0.95;;;0.75;;
65753;SDS011;52488;47.502;18.940;2022-09-19T05:28:42;1.75;;;0.82;;
65753;SDS011;52488;47.502;18.940;2022-09-19T05:29:48;1.55;;;0.65;;
65753;SDS011;52488;47.502;18.940;2022-09-19T05:30:52;2.00;;;0.80;;
65753;SDS011;52488;47.502;18.940;2022-09-19T05:31:58;2.60;;;0.70;;
65753;SDS011;52488;47.502;18.940;2022-09-19T05:33:03;0.88;;;0.70;;
65753;SDS011;52488;47.502;18.940;2022-09-19T05:34:08;0.90;;;0.70;;
65753;SDS011;52488;47.502;18.940;2022-09-19T05:35:15;0.93;;;0.80;;
65753;SDS011;52488;47.502;18.940;2022-09-19T05:36:18;0.70;;;0.70;;
65753;SDS011;52488;47.502;18.940;2022-09-19T05:37:22;0.75;;;0.73;;
65753;SDS011;52488;47.502;18.940;2022-09-19T05:38:26;0.93;;;0.75;;
65753;SDS011;52488;47.502;18.940;2022-09-19T05:39:31;0.85;;;0.80;;
65753;SDS011;52488;47.502;18.940;2022-09-19T05:40:35;0.93;;;0.60;;
65753;SDS011;52488;47.502;18.940;2022-09-19T05:41:38;0.70;;;0.70;;
65753;SDS011;52488;47.502;18.940;2022-09-19T05:42:42;1.30;;;0.75;;
65753;SDS011;52488;47.502;18.940;2022-09-19T05:43:45;0.90;;;0.80;;
65753;SDS011;52488;47.502;18.940;2022-09-19T05:44:48;2.08;;;0.77;;
65753;SDS011;52488;47.502;18.940;2022-09-19T05:45:56;2.25;;;0.73;;
65753;SDS011;52488;47.502;18.940;2022-09-19T05:46:59;0.80;;;0.73;;
65753;SDS011;52488;47.502;18.940;2022-09-19T05:48:04;1.35;;;0.60;;
65753;SDS011;52488;47.502;18.940;2022-09-19T05:49:08;0.60;;;0.60;;
65753;SDS011;52488;47.502;18.940;2022-09-19T05:50:12;2.85;;;1.15;;
65753;SDS011;52488;47.502;18.940;2022-09-19T05:51:17;3.00;;;1.00;;
65753;SDS011;52488;47.502;18.940;2022-09-19T05:52:20;0.95;;;0.77;;
65753;SDS011;52488;47.502;18.940;2022-09-19T05:53:41;1.12;;;0.90;;
65753;SDS011;52488;47.502;18.940;2022-09-19T05:54:58;0.70;;;0.70;;
65753;SDS011;52488;47.502;18.940;2022-09-19T05:56:01;1.02;;;0.80;;
65753;SDS011;52488;47.502;18.940;2022-09-19T05:57:07;2.37;;;0.93;;
65753;SDS011;52488;47.502;18.940;2022-09-19T05:58:10;2.60;;;0.80;;
65753;SDS011;52488;47.502;18.940;2022-09-19T05:59:14;1.02;;;0.80;;
65753;SDS011;52488;47.502;18.940;2022-09-19T06:00:17;4.25;;;0.90;;
65753;SDS011;52488;47.502;18.940;2022-09-19T06:01:21;2.30;;;0.95;;
65753;SDS011;52488;47.502;18.940;2022-09-19T06:02:24;5.43;;;1.10;;
65753;SDS011;52488;47.502;18.940;2022-09-19T06:03:27;2.47;;;0.75;;
65753;SDS011;52488;47.502;18.940;2022-09-19T06:04:31;0.82;;;0.70;;
65753;SDS011;52488;47.502;18.940;2022-09-19T06:05:38;2.50;;;1.20;;
65753;SDS011;52488;47.502;18.940;2022-09-19T06:06:42;1.37;;;0.82;;
65753;SDS011;52488;47.502;18.940;2022-09-19T06:07:45;2.92;;;0.57;;
65753;SDS011;52488;47.502;18.940;2022-09-19T06:08:55;0.95;;;0.70;;
65753;SDS011;52488;47.502;18.940;2022-09-19T06:09:59;0.82;;;0.60;;
65753;SDS011;52488;47.502;18.940;2022-09-19T06:11:02;0.73;;;0.70;;
65753;SDS011;52488;47.502;18.940;2022-09-19T06:12:05;0.85;;;0.70;;
65753;SDS011;52488;47.502;18.940;2022-09-19T06:13:10;1.95;;;0.70;;
65753;SDS011;52488;47.502;18.940;2022-09-19T06:14:17;1.12;;;0.80;;
65753;SDS011;52488;47.502;18.940;2022-09-19T06:15:22;2.95;;;0.73;;
65753;SDS011;52488;47.502;18.940;2022-09-19T06:16:25;1.20;;;0.70;;
65753;SDS011;52488;47.502;18.940;2022-09-19T06:17:28;1.37;;;0.70;;
65753;SDS011;52488;47.502;18.940;2022-09-19T06:18:31;1.48;;;0.68;;
65753;SDS011;52488;47.502;18.940;2022-09-19T06:19:34;2.67;;;0.88;;
65753;SDS011;52488;47.502;18.940;2022-09-19T06:20:40;1.17;;;0.93;;
65753;SDS011;52488;47.502;18.940;2022-09-19T06:21:44;4.12;;;1.05;;
65753;SDS011;52488;47.502;18.940;2022-09-19T06:22:47;0.90;;;0.90;;
65753;SDS011;52488;47.502;18.940;2022-09-19T06:23:50;1.90;;;0.95;;
65753;SDS011;52488;47.502;18.940;2022-09-19T06:24:53;1.05;;;0.60;;
65753;SDS011;52488;47.502;18.940;2022-09-19T06:25:56;1.52;;;0.80;;
65753;SDS011;52488;47.502;18.940;2022-09-19T06:26:59;1.98;;;0.80;;
65753;SDS011;52488;47.502;18.940;2022-09-19T06:28:06;1.70;;;0.90;;
65753;SDS011;52488;47.502;18.940;2022-09-19T06:29:14;3.17;;;0.70;;
65753;SDS011;52488;47.502;18.940;2022-09-19T06:30:17;1.90;;;0.70;;
65753;SDS011;52488;47.502;18.940;2022-09-19T06:31:20;0.70;;;0.60;;
65753;SDS011;52488;47.502;18.940;2022-09-19T06:32:23;1.95;;;0.73;;
65753;SDS011;52488;47.502;18.940;2022-09-19T06:33:25;1.62;;;0.60;;
65753;SDS011;52488;47.502;18.940;2022-09-19T06:34:29;2.92;;;0.70;;
65753;SDS011;52488;47.502;18.940;2022-09-19T06:35:54;2.08;;;0.62;;
65753;SDS011;52488;47.502;18.940;2022-09-19T06:37:00;3.22;;;0.77;;
65753;SDS011;52488;47.502;18.940;2022-09-19T06:38:06;2.42;;;0.60;;
65753;SDS011;52488;47.502;18.940;2022-09-19T06:39:11;1.80;;;0.60;;
65753;SDS011;52488;47.502;18.940;2022-09-19T06:40:14;0.37;;;0.37;;
65753;SDS011;52488;47.502;18.940;2022-09-19T06:41:20;0.93;;;0.60;;
65753;SDS011;52488;47.502;18.940;2022-09-19T06:42:23;0.65;;;0.47;;
65753;SDS011;52488;47.502;18.940;2022-09-19T06:43:30;0.80;;;0.60;;
65753;SDS011;52488;47.502;18.940;2022-09-19T06:44:33;0.85;;;0.43;;
65753;SDS011;52488;47.502;18.940;2022-09-19T06:45:36;1.62;;;0.50;;
65753;SDS011;52488;47.502;18.940;2022-09-19T06:46:43;1.15;;;0.50;;
65753;SDS011;52488;47.502;18.940;2022-09-19T06:47:46;2.10;;;0.60;;
65753;SDS011;52488;47.502;18.940;2022-09-19T06:48:49;3.05;;;0.80;;
65753;SDS011;52488;47.502;18.940;2022-09-19T06:49:52;1.50;;;0.50;;
65753;SDS011;52488;47.502;18.940;2022-09-19T06:50:55;0.40;;;0.40;;
65753;SDS011;52488;47.502;18.940;2022-09-19T06:51:57;0.75;;;0.65;;
65753;SDS011;52488;47.502;18.940;2022-09-19T06:53:00;1.05;;;0.50;;
65753;SDS011;52488;47.502;18.940;2022-09-19T06:54:03;1.70;;;0.50;;
65753;SDS011;52488;47.502;18.940;2022-09-19T06:55:06;2.00;;;0.55;;
65753;SDS011;52488;47.502;18.940;2022-09-19T06:56:10;3.65;;;0.73;;
65753;SDS011;52488;47.502;18.940;2022-09-19T06:57:13;0.50;;;0.50;;
65753;SDS011;52488;47.502;18.940;2022-09-19T06:58:17;1.35;;;0.40;;
65753;SDS011;52488;47.502;18.940;2022-09-19T06:59:20;0.50;;;0.50;;
65753;SDS011;52488;47.502;18.940;2022-09-19T07:00:23;1.05;;;0.40;;
65753;SDS011;52488;47.502;18.940;2022-09-19T07:01:28;0.50;;;0.30;;
65753;SDS011;52488;47.502;18.940;2022-09-19T07:02:31;0.93;;;0.40;;